createdAt,value
2018-05-25T00:01:01.837Z,13.23
2018-05-25T00:03:29.235Z,13.65
2018-05-25T00:05:56.640Z,13.30
2018-05-25T00:08:24.038Z,13.60
2018-05-25T00:10:51.448Z,13.57
2018-05-25T00:13:18.855Z,13.40
2018-05-25T00:15:46.269Z,12.93
2018-05-25T00:18:13.670Z,12.80
2018-05-25T00:20:41.070Z,12.77
2018-05-25T00:23:08.465Z,12.43
2018-05-25T00:25:35.868Z,13.38
2018-05-25T00:28:03.265Z,13.20
2018-05-25T00:30:30.673Z,13.33
2018-05-25T00:32:58.533Z,13.23
2018-05-25T00:35:26.605Z,13.32
2018-05-25T00:37:54.016Z,13.10
2018-05-25T00:40:21.414Z,14.00
2018-05-25T00:42:48.836Z,14.10
2018-05-25T00:45:16.230Z,13.10
2018-05-25T00:47:43.640Z,13.23
2018-05-25T00:50:11.037Z,12.27
2018-05-25T00:52:38.455Z,12.45
2018-05-25T00:55:17.691Z,12.63
2018-05-25T00:57:45.107Z,12.80
2018-05-25T01:00:12.505Z,13.37
2018-05-25T01:02:39.929Z,13.43
2018-05-25T01:05:07.323Z,13.70
2018-05-25T01:07:34.797Z,13.40
2018-05-25T01:10:02.209Z,14.73
2018-05-25T01:12:29.647Z,14.27
2018-05-25T01:15:01.487Z,14.33
2018-05-25T01:17:28.877Z,13.70
2018-05-25T01:19:56.665Z,14.03
2018-05-25T01:22:24.068Z,13.70
2018-05-25T01:24:51.452Z,14.70
2018-05-25T01:27:18.855Z,14.00
2018-05-25T01:29:46.237Z,14.27
2018-05-25T01:32:13.651Z,14.63
2018-05-25T01:34:41.029Z,14.70
2018-05-25T01:37:08.432Z,15.23
2018-05-25T01:39:35.819Z,15.88
2018-05-25T01:42:03.221Z,15.53
2018-05-25T01:44:30.603Z,17.47
2018-05-25T01:46:57.997Z,17.33
2018-05-25T01:49:25.414Z,15.57
2018-05-25T01:51:52.782Z,16.20
2018-05-25T01:54:20.178Z,17.47
2018-05-25T01:56:47.559Z,16.00
2018-05-25T01:59:14.951Z,16.80
2018-05-25T02:01:42.351Z,16.70
2018-05-25T02:04:09.746Z,16.60
2018-05-25T02:06:37.143Z,16.10
2018-05-25T02:09:07.226Z,17.33
2018-05-25T02:11:34.601Z,14.93
2018-05-25T02:14:02.009Z,16.87
2018-05-25T02:16:29.381Z,16.07
2018-05-25T02:18:56.974Z,17.48
2018-05-25T02:21:24.354Z,16.37
2018-05-25T02:23:51.759Z,16.10
2018-05-25T02:26:19.139Z,16.60
2018-05-25T02:28:46.536Z,16.00
2018-05-25T02:31:13.923Z,16.57
2018-05-25T02:33:41.316Z,17.10
2018-05-25T02:36:08.697Z,16.27
2018-05-25T02:38:36.106Z,17.60
2018-05-25T02:41:03.478Z,15.97
2018-05-25T02:43:30.884Z,19.53
2018-05-25T02:45:58.271Z,19.50
2018-05-25T02:48:25.665Z,19.63
2018-05-25T02:50:53.048Z,19.37
2018-05-25T02:53:20.451Z,19.83
2018-05-25T02:55:47.843Z,19.93
2018-05-25T02:58:15.259Z,19.83
2018-05-25T03:00:42.647Z,20.10
2018-05-25T03:03:10.050Z,21.63
2018-05-25T03:05:37.446Z,21.37
2018-05-25T03:08:04.853Z,21.63
2018-05-25T03:10:32.339Z,20.93
2018-05-25T03:12:59.728Z,22.40
2018-05-25T03:15:27.115Z,23.63
2018-05-25T03:17:54.511Z,24.73
2018-05-25T03:20:21.904Z,22.30
2018-05-25T03:22:49.310Z,23.62
2018-05-25T03:25:16.691Z,22.40
2018-05-25T03:27:44.127Z,22.98
2018-05-25T03:30:11.504Z,24.30
2018-05-25T03:32:38.902Z,23.33
2018-05-25T03:35:06.660Z,23.20
2018-05-25T03:37:34.050Z,26.08
2018-05-25T03:40:01.449Z,27.07
2018-05-25T03:42:28.851Z,26.63
2018-05-25T03:44:56.245Z,29.30
2018-05-25T03:47:23.639Z,29.10
2018-05-25T03:49:51.035Z,27.40
2018-05-25T03:52:18.423Z,26.97
2018-05-25T03:54:45.972Z,26.57
2018-05-25T03:57:13.384Z,26.43
2018-05-25T03:59:52.516Z,25.33
2018-05-25T04:02:19.900Z,25.27
2018-05-25T04:04:47.292Z,25.60
2018-05-25T04:07:14.677Z,25.37
2018-05-25T04:09:42.079Z,24.77
2018-05-25T04:12:09.463Z,22.97
2018-05-25T04:14:36.858Z,22.83
2018-05-25T04:17:04.354Z,22.98
2018-05-25T04:19:31.733Z,24.92
2018-05-25T04:21:59.118Z,25.20
2018-05-25T04:24:27.574Z,24.33
2018-05-25T04:26:54.972Z,25.67
2018-05-25T04:29:22.365Z,26.40
2018-05-25T04:31:49.749Z,26.23
2018-05-25T04:34:17.142Z,26.47
2018-05-25T04:36:44.532Z,26.45
2018-05-25T04:39:11.919Z,24.80
2018-05-25T04:41:39.311Z,23.97
2018-05-25T04:44:06.706Z,22.83
2018-05-25T04:46:34.099Z,22.77
2018-05-25T04:49:01.513Z,22.53
2018-05-25T04:51:28.894Z,22.53
2018-05-25T04:53:56.290Z,22.20
2018-05-25T04:56:23.678Z,22.77
2018-05-25T04:58:51.078Z,21.30
2018-05-25T05:01:18.462Z,21.50
2018-05-25T05:03:45.854Z,21.63
2018-05-25T05:06:13.239Z,21.37
2018-05-25T05:08:40.644Z,19.92
2018-05-25T05:11:08.036Z,21.92
2018-05-25T05:13:35.429Z,20.83
2018-05-25T05:16:02.815Z,19.67
2018-05-25T05:18:30.215Z,21.53
2018-05-25T05:20:58.155Z,20.95
2018-05-25T05:23:25.548Z,19.90
2018-05-25T05:25:52.945Z,18.53
2018-05-25T05:28:20.343Z,18.50
2018-05-25T05:30:47.738Z,18.87
2018-05-25T05:33:15.141Z,19.90
2018-05-25T05:35:42.522Z,19.83
2018-05-25T05:38:09.914Z,19.27
2018-05-25T05:40:37.318Z,19.60
2018-05-25T05:43:04.703Z,19.55
2018-05-25T05:45:32.096Z,19.87
2018-05-25T05:47:59.480Z,18.97
2018-05-25T05:50:28.539Z,19.22
2018-05-25T05:52:55.918Z,17.53
2018-05-25T05:55:23.317Z,16.90
2018-05-25T05:57:50.698Z,16.57
2018-05-25T06:00:18.095Z,16.90
2018-05-25T06:02:45.483Z,16.83
2018-05-25T06:05:12.886Z,16.10
2018-05-25T06:07:40.271Z,16.30
2018-05-25T06:10:07.668Z,14.57
2018-05-25T06:12:35.068Z,16.92
2018-05-25T06:15:02.462Z,15.77
2018-05-25T06:17:29.854Z,16.57
2018-05-25T06:19:58.223Z,17.25
2018-05-25T06:22:25.607Z,16.70
2018-05-25T06:24:53.006Z,15.68
2018-05-25T06:27:20.399Z,16.13
2018-05-25T06:29:47.788Z,15.67
2018-05-25T06:32:15.178Z,16.87
2018-05-25T06:34:42.644Z,17.00
2018-05-25T06:37:09.990Z,16.20
2018-05-25T06:39:37.387Z,16.92
2018-05-25T06:42:04.784Z,15.43
2018-05-25T06:44:32.179Z,17.10
2018-05-25T06:46:59.575Z,14.30
2018-05-25T06:49:26.972Z,15.20
2018-05-25T06:51:54.362Z,16.40
2018-05-25T06:54:21.755Z,17.53
2018-05-25T06:56:49.143Z,17.23
2018-05-25T06:59:16.538Z,18.27
2018-05-25T07:01:43.926Z,17.23
2018-05-25T07:04:11.328Z,16.23
2018-05-25T07:06:38.725Z,18.55
2018-05-25T07:09:06.115Z,16.10
2018-05-25T07:11:33.507Z,18.10
2018-05-25T07:14:00.915Z,14.93
2018-05-25T07:16:28.331Z,16.70
2018-05-25T07:18:55.744Z,17.03
2018-05-25T07:21:23.130Z,15.97
2018-05-25T07:23:50.530Z,17.10
2018-05-25T07:26:18.223Z,16.03
2018-05-25T07:28:45.635Z,16.58
2018-05-25T07:31:13.034Z,16.60
2018-05-25T07:33:40.432Z,16.87
2018-05-25T07:36:07.830Z,18.73
2018-05-25T07:38:35.216Z,16.60
2018-05-25T07:41:02.846Z,17.03
2018-05-25T07:43:30.491Z,16.53
2018-05-25T07:46:00.040Z,16.92
2018-05-25T07:48:27.430Z,17.30
2018-05-25T07:50:54.826Z,16.70
2018-05-25T07:53:22.219Z,16.57
2018-05-25T07:55:49.624Z,16.53
2018-05-25T07:58:17.018Z,19.13
2018-05-25T08:00:44.422Z,17.10
2018-05-25T08:03:11.814Z,20.13
2018-05-25T08:05:39.209Z,19.02
2018-05-25T08:08:06.603Z,18.17
2018-05-25T08:10:33.998Z,17.80
2018-05-25T08:13:01.422Z,20.63
2018-05-25T08:15:28.825Z,19.50
2018-05-25T08:17:56.215Z,17.30
2018-05-25T08:20:23.620Z,19.05
2018-05-25T08:22:50.998Z,17.40
2018-05-25T08:25:18.398Z,19.00
2018-05-25T08:27:45.794Z,18.80
2018-05-25T08:30:13.192Z,16.80
2018-05-25T08:32:40.576Z,16.30
2018-05-25T08:35:07.975Z,17.60
2018-05-25T08:37:35.367Z,16.10
2018-05-25T08:40:02.793Z,15.80
2018-05-25T08:42:30.178Z,18.20
2018-05-25T08:44:57.591Z,17.83
2018-05-25T08:47:24.980Z,16.57
2018-05-25T08:49:52.376Z,16.20
2018-05-25T08:52:19.766Z,16.70
2018-05-25T08:54:47.168Z,16.00
2018-05-25T08:57:14.554Z,16.20
2018-05-25T08:59:41.944Z,15.83
2018-05-25T09:02:09.335Z,18.30
2018-05-25T09:04:36.731Z,16.87
2018-05-25T09:07:04.119Z,17.80
2018-05-25T09:09:31.512Z,19.23
2018-05-25T09:11:58.936Z,20.00
2018-05-25T09:14:26.333Z,18.70
2018-05-25T09:16:53.726Z,18.53
2018-05-25T09:19:21.123Z,18.57
2018-05-25T09:21:48.541Z,17.40
2018-05-25T09:24:15.899Z,17.05
2018-05-25T09:26:43.295Z,17.42
2018-05-25T09:29:10.679Z,18.47
2018-05-25T09:31:38.105Z,16.80
2018-05-25T09:34:05.494Z,17.17
2018-05-25T09:36:32.888Z,18.30
2018-05-25T09:39:00.295Z,16.50
2018-05-25T09:41:27.695Z,12.03
2018-05-25T09:43:55.079Z,18.50
2018-05-25T09:46:22.485Z,18.40
2018-05-25T09:48:50.745Z,17.90
2018-05-25T09:51:18.083Z,16.30
2018-05-25T09:53:45.469Z,15.73
2018-05-25T09:56:12.903Z,14.33
2018-05-25T09:58:40.264Z,13.55
2018-05-25T10:01:07.669Z,15.07
2018-05-25T10:03:35.068Z,13.45
2018-05-25T10:06:02.467Z,13.80
2018-05-25T10:08:29.861Z,14.50
2018-05-25T10:10:57.279Z,13.10
2018-05-25T10:13:24.681Z,11.57
2018-05-25T10:15:52.084Z,12.17
2018-05-25T10:18:19.472Z,13.43
2018-05-25T10:20:46.876Z,11.40
2018-05-25T10:23:14.256Z,11.80
2018-05-25T10:25:41.654Z,11.05
2018-05-25T10:28:09.043Z,11.63
2018-05-25T10:30:36.448Z,10.82
2018-05-25T10:33:03.833Z,11.55
2018-05-25T10:35:31.239Z,10.10
2018-05-25T10:37:59.319Z,10.73
2018-05-25T10:40:26.724Z,9.80
2018-05-25T10:42:54.119Z,12.50
2018-05-25T10:45:21.516Z,10.07
2018-05-25T10:47:48.895Z,9.07
2018-05-25T10:50:16.296Z,9.63
2018-05-25T10:52:43.689Z,9.83
2018-05-25T10:55:11.075Z,9.73
2018-05-25T10:57:38.466Z,11.50
2018-05-25T11:00:05.864Z,9.70
2018-05-25T11:02:33.251Z,10.40
2018-05-25T11:05:00.647Z,11.10
2018-05-25T11:07:28.038Z,11.00
2018-05-25T11:09:55.461Z,11.57
2018-05-25T11:12:22.832Z,11.07
2018-05-25T11:14:50.627Z,11.30
2018-05-25T11:17:18.019Z,9.90
2018-05-25T11:19:45.406Z,12.27
2018-05-25T11:22:12.815Z,11.07
2018-05-25T11:24:40.210Z,10.57
2018-05-25T11:27:07.655Z,10.90
2018-05-25T11:29:34.999Z,11.05
2018-05-25T11:32:02.405Z,10.47
2018-05-25T11:34:29.807Z,9.80
2018-05-25T11:36:57.185Z,9.23
2018-05-25T11:39:24.582Z,9.90
2018-05-25T11:41:51.962Z,9.53
2018-05-25T11:44:19.348Z,9.60
2018-05-25T11:46:48.819Z,9.10
2018-05-25T11:49:16.206Z,9.63
2018-05-25T11:51:43.596Z,8.97
2018-05-25T11:54:10.980Z,8.88
2018-05-25T11:56:38.368Z,8.68
2018-05-25T11:59:05.746Z,8.67
2018-05-25T12:01:33.205Z,8.33
2018-05-25T12:04:00.579Z,7.73
2018-05-25T12:06:27.971Z,7.67
2018-05-25T12:08:55.360Z,7.40
2018-05-25T12:11:22.764Z,8.03
2018-05-25T12:13:50.144Z,6.90
2018-05-25T12:16:17.559Z,7.70
2018-05-25T12:18:44.929Z,7.60
2018-05-25T12:21:12.312Z,7.80
2018-05-25T12:23:39.698Z,7.17
2018-05-25T12:26:07.080Z,6.95
2018-05-25T12:28:34.465Z,6.13
2018-05-25T12:31:02.449Z,6.43
2018-05-25T12:33:30.039Z,6.13
2018-05-25T12:35:57.440Z,6.20
2018-05-25T12:38:24.815Z,6.10
2018-05-25T12:40:52.231Z,5.80
2018-05-25T12:43:19.611Z,5.77
2018-05-25T12:45:47.004Z,5.90
2018-05-25T12:48:14.395Z,6.60
2018-05-25T12:50:41.790Z,6.20
2018-05-25T12:53:09.168Z,6.90
2018-05-25T12:55:36.560Z,7.05
2018-05-25T12:58:03.944Z,5.70
2018-05-25T13:00:31.331Z,6.60
2018-05-25T13:02:58.711Z,6.43
2018-05-25T13:05:26.091Z,6.27
2018-05-25T13:07:53.487Z,6.87
2018-05-25T13:10:20.858Z,6.80
2018-05-25T13:12:48.251Z,6.40
2018-05-25T13:15:15.630Z,5.65
2018-05-25T13:17:43.015Z,5.40
2018-05-25T13:20:10.394Z,5.83
2018-05-25T13:22:37.783Z,6.60
2018-05-25T13:25:05.164Z,5.32
2018-05-25T13:27:32.543Z,4.63
2018-05-25T13:30:00.200Z,4.63
2018-05-25T13:32:27.582Z,4.50
2018-05-25T13:34:54.960Z,4.63
2018-05-25T13:37:22.351Z,4.87
2018-05-25T13:39:49.728Z,4.47
2018-05-25T13:42:17.288Z,5.10
2018-05-25T13:44:44.801Z,4.80
2018-05-25T13:47:12.243Z,4.90
2018-05-25T13:49:39.861Z,4.97
2018-05-25T13:52:07.272Z,4.80
2018-05-25T13:54:34.782Z,5.37
2018-05-25T13:57:02.216Z,4.80
2018-05-25T13:59:30.711Z,5.30
2018-05-25T14:01:58.127Z,4.50
2018-05-25T14:04:25.554Z,4.73
2018-05-25T14:06:52.943Z,4.60
2018-05-25T14:09:20.442Z,4.83
2018-05-25T14:11:47.841Z,5.05
2018-05-25T14:14:15.233Z,4.80
2018-05-25T14:16:42.660Z,4.13
2018-05-25T14:19:10.079Z,4.87
2018-05-25T14:21:37.603Z,4.07
2018-05-25T14:24:05.029Z,4.50
2018-05-25T14:26:32.451Z,5.20
2018-05-25T14:29:00.469Z,4.60
2018-05-25T14:31:27.892Z,4.60
2018-05-25T14:33:55.366Z,4.30
2018-05-25T14:36:22.762Z,4.53
2018-05-25T14:38:50.143Z,4.00
2018-05-25T14:41:17.707Z,3.80
2018-05-25T14:43:45.176Z,3.90
2018-05-25T14:46:12.804Z,3.65
2018-05-25T14:48:40.307Z,3.80
2018-05-25T14:51:07.719Z,3.13
2018-05-25T14:53:35.193Z,3.50
2018-05-25T14:56:02.679Z,3.30
2018-05-25T14:58:30.767Z,3.30
2018-05-25T15:00:58.178Z,4.03
2018-05-25T15:03:25.555Z,3.58
2018-05-25T15:05:52.931Z,3.47
2018-05-25T15:08:20.324Z,3.23
2018-05-25T15:10:47.700Z,3.90
2018-05-25T15:13:15.088Z,3.70
2018-05-25T15:15:42.462Z,3.55
2018-05-25T15:18:09.855Z,3.63
2018-05-25T15:20:37.235Z,3.37
2018-05-25T15:23:04.618Z,3.80
2018-05-25T15:25:32.839Z,3.40
2018-05-25T15:28:00.726Z,3.37
2018-05-25T15:30:28.107Z,4.40
2018-05-25T15:32:55.499Z,4.40
2018-05-25T15:35:22.887Z,4.60
2018-05-25T15:37:50.274Z,4.20
2018-05-25T15:40:17.838Z,4.30
2018-05-25T15:42:45.290Z,3.50
2018-05-25T15:45:12.667Z,4.47
2018-05-25T15:47:40.059Z,4.10
2018-05-25T15:50:07.443Z,4.20
2018-05-25T15:52:34.830Z,3.90
2018-05-25T15:55:02.210Z,4.20
2018-05-25T15:57:29.608Z,4.10
2018-05-25T15:59:56.992Z,4.00
2018-05-25T16:02:24.442Z,3.93
2018-05-25T16:04:51.763Z,4.40
2018-05-25T16:07:19.156Z,4.60
2018-05-25T16:09:46.534Z,4.63
2018-05-25T16:12:13.936Z,4.97
2018-05-25T16:14:41.317Z,4.30
2018-05-25T16:17:08.700Z,3.97
2018-05-25T16:19:36.079Z,4.43
2018-05-25T16:22:03.466Z,4.50
2018-05-25T16:24:31.075Z,4.97
2018-05-25T16:26:58.464Z,4.80
2018-05-25T16:29:25.838Z,5.23
2018-05-25T16:31:53.231Z,4.30
2018-05-25T16:34:20.616Z,5.10
2018-05-25T16:36:48.008Z,4.97
2018-05-25T16:39:15.389Z,4.80
2018-05-25T16:41:42.766Z,4.23
2018-05-25T16:44:10.170Z,4.97
2018-05-25T16:46:37.547Z,5.22
2018-05-25T16:49:04.930Z,5.23
2018-05-25T16:51:32.347Z,5.23
2018-05-25T16:53:59.744Z,5.50
2018-05-25T16:56:27.135Z,4.63
2018-05-25T16:58:54.581Z,5.43
2018-05-25T17:01:21.908Z,5.47
2018-05-25T17:03:49.302Z,6.00
2018-05-25T17:06:16.691Z,5.90
2018-05-25T17:08:44.083Z,5.53
2018-05-25T17:11:11.613Z,5.47
2018-05-25T17:13:39.012Z,5.47
2018-05-25T17:16:06.391Z,6.05
2018-05-25T17:18:35.450Z,5.57
2018-05-25T17:21:02.925Z,5.60
2018-05-25T17:23:30.235Z,6.07
2018-05-25T17:25:57.611Z,6.40
2018-05-25T17:28:25.003Z,6.30
2018-05-25T17:30:52.383Z,6.17
2018-05-25T17:33:19.775Z,6.80
2018-05-25T17:35:47.160Z,6.07
2018-05-25T17:38:14.552Z,6.70
2018-05-25T17:40:41.949Z,5.77
2018-05-25T17:43:09.340Z,6.12
2018-05-25T17:45:36.747Z,5.50
2018-05-25T17:48:04.120Z,6.47
2018-05-25T17:50:33.428Z,5.93
2018-05-25T17:53:01.442Z,6.10
2018-05-25T17:55:28.846Z,6.17
2018-05-25T17:57:56.244Z,5.17
2018-05-25T18:00:23.644Z,5.90
2018-05-25T18:02:51.042Z,6.37
2018-05-25T18:05:18.451Z,5.90
2018-05-25T18:07:45.844Z,5.80
2018-05-25T18:10:13.254Z,6.45
2018-05-25T18:12:40.644Z,6.40
2018-05-25T18:15:08.051Z,6.20
2018-05-25T18:17:35.441Z,6.00
2018-05-25T18:20:02.834Z,6.03
2018-05-25T18:22:30.216Z,6.07
2018-05-25T18:24:57.709Z,6.43
2018-05-25T18:27:25.109Z,5.90
2018-05-25T18:29:52.559Z,5.30
2018-05-25T18:32:19.941Z,6.10
2018-05-25T18:34:47.326Z,5.67
2018-05-25T18:37:15.031Z,5.50
2018-05-25T18:39:42.427Z,6.23
2018-05-25T18:42:09.810Z,24.73
2018-05-25T18:44:37.233Z,10.43
2018-05-25T18:47:04.601Z,6.40
2018-05-25T18:49:32.004Z,6.13
2018-05-25T18:51:59.410Z,6.70
2018-05-25T18:54:32.465Z,6.30
2018-05-25T18:56:59.847Z,6.87
2018-05-25T18:59:27.590Z,9.50
2018-05-25T19:01:54.971Z,8.80
2018-05-25T19:04:22.354Z,9.67
2018-05-25T19:06:49.767Z,18.83
2018-05-25T19:09:17.150Z,9.73
2018-05-25T19:11:44.555Z,11.32
2018-05-25T19:14:11.955Z,17.15
2018-05-25T19:16:39.366Z,16.20
2018-05-25T19:19:07.566Z,10.45
2018-05-25T19:21:34.966Z,8.20
2018-05-25T19:24:02.354Z,7.30
2018-05-25T19:26:29.735Z,8.97
2018-05-25T19:28:57.162Z,9.40
2018-05-25T19:31:24.522Z,10.40
2018-05-25T19:33:51.905Z,8.70
2018-05-25T19:36:19.309Z,9.70
2018-05-25T19:38:47.027Z,8.23
2018-05-25T19:41:14.362Z,6.73
2018-05-25T19:43:41.803Z,6.60
2018-05-25T19:46:09.207Z,6.60
2018-05-25T19:48:36.602Z,6.18
2018-05-25T19:51:03.980Z,6.83
2018-05-25T19:53:34.206Z,6.56
2018-05-25T19:56:02.008Z,6.45
2018-05-25T19:58:29.398Z,5.87
2018-05-25T20:00:56.789Z,6.60
2018-05-25T20:03:24.170Z,7.47
2018-05-25T20:05:51.547Z,6.93
2018-05-25T20:08:18.941Z,6.97
2018-05-25T20:10:46.322Z,7.30
2018-05-25T20:13:13.715Z,6.00
2018-05-25T20:15:41.099Z,6.43
2018-05-25T20:18:08.633Z,6.10
2018-05-25T20:20:36.029Z,7.47
2018-05-25T20:23:03.417Z,6.20
2018-05-25T20:25:30.808Z,6.43
2018-05-25T20:27:58.192Z,6.07
2018-05-25T20:30:25.578Z,5.60
2018-05-25T20:32:52.969Z,5.23
2018-05-25T20:35:20.359Z,6.00
2018-05-25T20:37:47.767Z,6.20
2018-05-25T20:40:15.160Z,5.97
2018-05-25T20:42:42.561Z,6.07
2018-05-25T20:45:09.952Z,6.40
2018-05-25T20:47:37.329Z,6.20
2018-05-25T20:50:04.727Z,5.43
2018-05-25T20:52:32.501Z,5.47
2018-05-25T20:54:59.939Z,5.80
2018-05-25T20:57:27.304Z,7.37
2018-05-25T20:59:54.705Z,8.93
2018-05-25T21:02:22.093Z,7.07
2018-05-25T21:04:49.491Z,7.47
2018-05-25T21:07:16.887Z,14.57
2018-05-25T21:09:44.289Z,8.57
2018-05-25T21:12:11.740Z,12.35
2018-05-25T21:14:39.098Z,8.40
2018-05-25T21:17:06.468Z,7.50
2018-05-25T21:19:33.895Z,8.30
2018-05-25T21:22:01.258Z,7.07
2018-05-25T21:24:28.649Z,7.70
2018-05-25T21:26:56.065Z,7.30
2018-05-25T21:29:23.462Z,7.50
2018-05-25T21:31:50.852Z,6.13
2018-05-25T21:34:18.248Z,6.40
2018-05-25T21:36:45.627Z,5.90
2018-05-25T21:39:13.027Z,6.93
2018-05-25T21:41:40.419Z,6.43
2018-05-25T21:44:07.807Z,6.63
2018-05-25T21:46:35.205Z,6.17
2018-05-25T21:49:02.586Z,5.57
2018-05-25T21:51:30.016Z,6.57
2018-05-25T21:53:57.409Z,6.30
2018-05-25T21:56:24.808Z,6.17
2018-05-25T21:58:52.185Z,5.93
2018-05-25T22:01:19.596Z,6.43
2018-05-25T22:03:46.984Z,7.20
2018-05-25T22:06:14.381Z,6.43
2018-05-25T22:08:41.763Z,7.20
2018-05-25T22:11:09.158Z,7.70
2018-05-25T22:13:36.533Z,7.30
2018-05-25T22:16:03.914Z,6.33
2018-05-25T22:18:31.312Z,11.70
2018-05-25T22:20:58.711Z,9.45
2018-05-25T22:23:26.103Z,10.93
2018-05-25T22:25:53.503Z,10.67
2018-05-25T22:28:20.897Z,10.20
2018-05-25T22:30:48.299Z,18.33
2018-05-25T22:33:15.699Z,10.95
2018-05-25T22:35:43.090Z,6.60
2018-05-25T22:38:10.464Z,8.10
2018-05-25T22:40:38.131Z,7.25
2018-05-25T22:43:17.314Z,7.73
2018-05-25T22:45:56.519Z,6.97
2018-05-25T22:48:35.594Z,6.80
2018-05-25T22:51:14.768Z,7.20
2018-05-25T22:53:47.241Z,7.50
2018-05-25T22:56:14.637Z,7.13
2018-05-25T22:58:42.034Z,7.35
2018-05-25T23:01:09.607Z,7.47
2018-05-25T23:03:37.009Z,7.10
2018-05-25T23:06:04.382Z,8.13
2018-05-25T23:08:31.775Z,7.97
2018-05-25T23:10:59.163Z,7.17
2018-05-25T23:13:26.555Z,7.40
2018-05-25T23:15:53.928Z,7.27
2018-05-25T23:18:21.327Z,7.60
2018-05-25T23:20:48.728Z,7.80
2018-05-25T23:23:16.125Z,6.93
2018-05-25T23:25:43.712Z,7.53
2018-05-25T23:28:11.107Z,7.25
2018-05-25T23:30:38.500Z,6.93
2018-05-25T23:33:07.466Z,7.50
2018-05-25T23:35:34.848Z,7.07
2018-05-25T23:38:04.260Z,7.28
2018-05-25T23:40:31.679Z,6.90
2018-05-25T23:42:59.313Z,7.00
2018-05-25T23:45:26.891Z,6.97
2018-05-25T23:47:54.342Z,8.00
2018-05-25T23:50:21.804Z,8.60
2018-05-25T23:52:49.192Z,8.50
2018-05-25T23:55:16.578Z,8.40
2018-05-25T23:57:43.963Z,7.83
